Date,TemperatureHighF,TemperatureAvgF,TemperatureLowF,DewpointHighF,DewpointAvgF,DewpointLowF,HumidityHigh,HumidityAvg,HumidityLow,PressureMaxIn,PressureMinIn,WindSpeedMaxMPH,WindSpeedAvgMPH,GustSpeedMaxMPH,PrecipitationSumIn
2014-1-11,49.0,38.8,34.0,44.0,31.9,-99.9,85,80,59,30.08,29.39,14,3,18,0.24
2014-1-12,46.0,41.5,32.0,33.0,28.3,24.0,71,59,52,30.06,29.56,13,6,21,0.01
2014-1-13,50.0,38.3,27.0,37.0,28.8,21.0,79,69,50,30.06,29.81,5,1,12,0.01
2014-1-14,48.0,44.4,35.0,42.0,38.0,29.0,84,78,70,29.87,29.68,3,1,6,0.30
2014-1-15,46.0,36.0,29.0,36.0,28.6,22.0,83,75,52,29.96,29.85,10,2,16,0.02
2014-1-16,38.0,32.2,26.0,22.0,17.6,13.0,63,54,44,30.00,29.85,9,3,13,0.01
2014-1-17,47.0,36.2,27.0,27.0,23.3,18.0,75,60,43,29.91,29.80,4,1,8,0.00
2014-1-31,45.0,32.8,25.0,22.0,15.1,8.0,63,49,29,30.18,30.05,3,0,8,0.00
2014-2-1,49.0,36.8,27.0,25.0,19.1,-99.9,73,53,32,30.23,29.95,7,1,13,0.00
2014-2-2,55.0,41.0,30.0,38.0,29.8,22.0,76,65,49,30.07,29.90,4,0,10,0.00
2014-2-3,39.0,34.5,29.0,33.0,28.8,20.0,83,80,70,30.30,30.03,7,2,11,0.78
2014-2-4,31.0,26.8,19.0,22.0,18.5,13.0,77,70,62,30.45,30.16,4,1,7,0.07
2014-2-5,40.0,33.0,29.0,32.0,25.4,18.0,82,74,59,30.12,29.68,20,5,30,0.93
2014-2-6,34.0,28.2,23.0,18.0,14.4,12.0,64,56,44,30.32,30.11,15,5,23,0.16
2014-2-7,36.0,31.4,25.0,17.0,13.8,9.0,54,48,44,30.31,30.23,7,4,13,0.04
2014-2-8,30.0,24.9,20.0,14.0,10.7,6.0,70,55,39,30.31,30.15,4,1,9,0.02
2014-2-9,31.0,25.8,21.0,23.0,18.4,13.0,81,73,62,30.16,29.94,11,1,16,0.01
2014-2-10,30.0,23.2,14.0,17.0,9.3,4.0,63,55,47,30.30,30.04,11,4,18,0.02
2014-2-11,28.0,18.1,10.0,8.0,5.3,2.0,71,58,40,30.44,30.29,8,1,11,0.01
2014-2-12,23.0,15.3,4.0,14.0,4.6,-4.0,77,63,49,30.49,30.17,5,1,11,0.01
2014-2-13,37.0,28.4,19.0,30.0,22.6,13.0,88,79,67,30.16,29.34,16,9,33,0.08
2014-2-14,44.0,39.0,32.0,29.0,22.5,15.0,68,52,44,29.70,29.38,13,4,20,0.02
2014-2-15,38.0,31.0,26.0,29.0,18.6,-99.9,82,64,44,29.94,29.62,22,10,30,0.07
2014-4-15,69.0,53.5,35.0,60.0,44.4,19.0,84,72,51,30.06,29.52,21,8,31,0.72
2014-4-16,47.0,37.2,29.0,21.0,16.6,13.0,54,43,30,30.49,30.07,16,7,23,0.01
2014-4-17,56.0,43.8,29.0,32.0,26.0,17.0,72,51,35,30.62,30.48,7,2,13,0.00
2014-4-18,56.0,45.0,32.0,38.0,32.2,26.0,79,62,49,30.55,30.24,5,1,10,0.00
2014-4-19,68.0,53.5,39.0,41.0,32.9,25.0,78,50,21,30.30,30.21,8,2,13,0.00
2014-4-20,67.0,53.1,40.0,39.0,30.1,-99.9,62,44,33,30.40,30.27,6,2,11,0.00
2014-4-21,71.0,56.0,37.0,39.0,32.2,27.0,74,44,21,30.26,29.84,6,1,9,0.00
2014-5-13,83.0,74.2,70.0,67.0,62.9,61.0,75,68,58,30.14,30.04,3,1,10,0.18
2014-5-14,71.0,65.1,60.0,62.0,58.0,54.0,82,78,74,30.21,30.11,4,1,8,0.06
2014-5-15,81.0,70.2,66.0,67.0,62.9,60.0,85,78,61,30.12,29.87,12,3,23,0.85
2014-5-16,67.0,59.9,51.0,63.0,49.2,41.0,86,69,52,29.94,29.79,8,3,14,2.08
2014-5-17,64.0,55.4,45.0,45.0,39.8,35.0,80,58,34,30.16,29.95,9,2,15,0.01
2014-5-18,64.0,53.2,43.0,42.0,36.5,-99.9,78,56,37,30.25,30.16,9,2,15,0.00
2014-5-21,72.0,65.0,58.0,61.0,55.7,49.0,83,72,54,30.00,29.87,4,1,7,0.00
2014-5-22,83.0,69.4,62.0,66.0,56.1,-99.9,86,67,46,29.93,29.77,11,4,18,1.19
2014-5-23,72.0,63.3,53.0,54.0,48.8,43.0,75,60,46,30.04,29.91,13,5,24,0.61
2014-5-24,75.0,63.0,49.0,57.0,50.0,42.0,79,64,44,30.12,30.03,11,2,20,0.00
2014-5-25,80.0,66.1,50.0,58.0,49.0,-99.9,84,59,34,30.18,30.07,3,1,10,0.01
2014-5-26,84.0,72.4,54.0,61.0,55.5,47.0,80,57,40,30.13,29.95,4,1,9,0.01
2014-5-27,86.0,72.7,65.0,70.0,62.1,55.0,83,70,55,29.98,29.84,17,2,23,0.05
2014-5-28,81.0,73.3,67.0,68.0,64.4,61.0,81,74,63,30.03,29.85,4,1,10,0.01
2014-5-29,66.0,59.2,57.0,59.0,53.1,52.0,83,80,77,30.16,30.03,5,1,11,0.12
2014-5-30,73.0,61.0,56.0,57.0,53.0,51.0,85,76,58,30.15,30.05,5,1,9,0.01
2014-5-31,78.0,66.7,56.0,54.0,48.9,43.0,83,56,31,30.23,30.11,8,2,15,0.00
2014-6-1,76.0,63.6,55.0,56.0,47.1,-99.9,80,60,46,30.33,30.20,6,2,15,0.00
2014-6-2,82.0,71.6,58.0,66.0,57.8,49.0,73,62,53,30.24,30.02,6,2,12,0.00
2014-6-3,85.0,73.8,64.0,69.0,62.5,57.0,79,68,55,30.02,29.83,6,2,13,0.00
2014-6-4,81.0,74.1,67.0,64.0,60.8,58.0,80,64,49,29.89,29.69,7,1,16,0.05
2014-6-5,76.0,68.7,60.0,61.0,55.3,50.0,83,63,45,29.88,29.62,9,4,18,0.68
2014-6-6,77.0,66.0,53.0,54.0,50.0,44.0,75,58,43,29.98,29.86,8,2,17,0.11
2014-6-7,82.0,69.1,53.0,60.0,54.4,48.0,83,62,39,30.05,29.94,3,0,8,0.00
2014-6-8,82.0,68.0,57.0,67.0,56.4,-99.9,84,72,54,29.96,29.79,9,2,17,0.69
2014-6-9,82.0,73.7,68.0,68.0,65.3,63.0,86,76,59,29.89,29.83,4,1,8,0.58
2014-6-10,85.0,75.8,70.0,70.0,67.1,65.0,86,75,55,29.92,29.86,3,1,6,0.28
2014-6-11,83.0,73.4,66.0,70.0,65.7,61.0,85,77,61,29.99,29.87,7,2,15,0.70
2014-6-12,76.0,71.8,67.0,69.0,66.0,62.0,85,82,77,29.96,29.83,4,2,13,0.82
2014-6-13,83.0,73.7,68.0,69.0,66.5,60.0,86,79,57,29.88,29.74,15,2,26,0.31
2014-6-14,72.0,65.6,59.0,62.0,53.5,51.0,83,66,53,30.09,29.88,10,4,18,0.02
2014-6-15,83.0,68.4,53.0,61.0,50.8,-99.9,82,61,43,30.18,30.06,4,1,9,0.00
2014-6-16,89.0,70.2,59.0,70.0,60.8,54.0,84,73,49,30.14,30.03,4,1,9,0.23
2014-6-17,91.0,80.2,68.0,75.0,69.1,63.0,85,70,56,30.10,29.94,8,2,13,0.23
2014-6-18,90.0,81.7,73.0,72.0,68.1,62.0,76,64,52,30.03,29.96,7,2,15,0.00
2014-6-19,79.0,74.1,68.0,68.0,65.6,63.0,83,75,67,30.04,29.98,13,2,26,0.68
2014-6-20,81.0,71.2,60.0,62.0,57.2,51.0,85,64,43,30.07,29.93,3,1,10,0.01
2014-6-21,71.0,67.0,63.0,59.0,56.6,53.0,81,69,60,29.94,29.90,5,1,8,0.00
2014-6-22,78.0,67.0,60.0,64.0,53.8,-99.9,85,70,57,29.98,29.90,4,1,8,0.01
2014-6-23,81.0,73.6,64.0,63.0,60.5,57.0,79,64,51,30.09,29.99,8,4,16,0.01
2014-6-24,85.0,74.5,67.0,69.0,63.5,58.0,74,69,59,30.10,29.97,10,4,17,0.00
2014-6-25,87.0,77.5,72.0,71.0,67.7,65.0,86,73,58,29.98,29.80,6,2,11,1.96
2014-6-26,85.0,74.8,70.0,68.0,65.7,63.0,86,74,52,29.99,29.86,10,3,16,1.96
2014-6-27,85.0,77.2,64.0,68.0,64.8,59.0,84,67,51,30.10,30.02,4,2,8,0.00
2014-6-30,87.0,83.6,79.0,70.0,69.0,68.0,70,62,57,29.96,29.92,5,3,8,0.00
2014-7-1,91.0,82.5,72.0,75.0,70.6,66.0,84,68,56,29.92,29.80,7,3,16,2.34
2014-7-2,83.0,75.4,72.0,73.0,69.5,67.0,86,82,70,29.93,29.83,4,1,8,2.36
2014-7-3,89.0,77.6,72.0,73.0,69.4,66.0,86,77,56,29.96,29.88,6,1,13,0.06
2014-7-5,78.0,71.7,67.0,56.0,53.7,52.0,60,53,47,30.16,30.14,0,0,1,0.00
2014-7-6,84.0,67.9,58.0,63.0,50.2,-99.9,81,61,46,30.15,29.93,3,1,9,0.00
2014-7-7,90.0,80.2,73.0,71.0,65.2,61.0,71,61,49,29.93,29.76,7,3,16,0.00
2014-7-8,88.0,76.8,71.0,70.0,65.6,64.0,79,69,55,29.83,29.66,11,3,20,0.17
2014-7-9,84.0,75.2,68.0,70.0,66.4,63.0,84,75,61,29.91,29.82,4,2,9,0.17
2014-7-10,87.0,75.4,64.0,66.0,62.8,59.0,84,66,43,30.14,29.96,5,1,12,0.00
2014-7-11,85.0,76.0,63.0,66.0,63.2,58.0,83,66,50,30.21,30.13,3,1,9,0.00
2014-7-12,86.0,75.4,67.0,70.0,66.2,62.0,83,74,60,30.19,30.07,8,2,12,0.59
2014-7-13,84.0,77.4,72.0,71.0,68.1,65.0,78,73,66,30.06,29.86,5,3,21,0.59
2014-7-14,83.0,74.1,70.0,72.0,68.5,65.0,86,83,68,29.93,29.83,3,0,5,1.01
2014-7-15,82.0,75.7,71.0,72.0,68.3,65.0,86,78,65,29.81,29.73,4,1,6,0.59
2014-7-16,78.0,68.9,61.0,58.0,56.1,54.0,80,65,44,29.90,29.79,3,1,12,0.00
2014-7-17,79.0,68.4,60.0,58.0,54.3,52.0,77,62,44,30.13,29.95,4,1,9,0.00
2014-7-18,81.0,67.0,55.0,61.0,55.2,50.0,83,67,45,30.24,30.15,3,1,7,0.00
2014-7-19,79.0,72.5,66.0,62.0,60.4,58.0,82,67,50,30.21,30.12,3,1,9,0.03
2014-7-20,80.0,71.3,65.0,65.0,61.6,59.0,82,72,57,30.12,30.07,2,0,5,0.01
2014-7-21,82.0,75.6,70.0,69.0,66.5,64.0,82,74,64,30.17,30.09,4,2,11,0.00
2014-7-22,86.0,79.4,72.0,71.0,69.1,65.0,84,72,62,30.17,30.04,6,2,11,0.00
2014-7-23,90.0,78.6,70.0,75.0,69.5,65.0,84,74,57,30.04,29.81,7,2,11,0.00
2014-7-24,78.0,74.7,71.0,67.0,60.5,55.0,81,62,47,29.93,29.86,7,3,13,0.04
2014-7-25,83.0,69.7,56.0,59.0,55.0,50.0,81,62,38,30.06,29.97,3,0,5,0.02
2014-7-26,84.0,70.3,65.0,62.0,59.7,57.0,81,70,48,30.00,29.87,3,0,7,0.00
2014-7-27,88.0,67.0,68.0,73.0,60.8,62.0,84,74,61,29.88,29.63,9,2,13,1.02
2014-7-28,77.0,71.2,65.0,64.0,60.8,57.0,85,71,53,29.80,29.58,8,3,15,1.11
2014-7-29,71.0,62.1,55.0,55.0,50.5,47.0,76,66,49,30.01,29.84,3,0,9,0.01
2014-7-30,77.0,68.3,53.0,57.0,54.1,48.0,82,62,47,30.07,30.00,5,2,10,0.00
2014-7-31,81.0,60.6,61.0,64.0,52.0,56.0,85,71,52,30.10,30.03,6,1,14,0.05
2014-8-1,77.0,70.4,63.0,66.0,62.2,58.0,84,75,65,30.17,30.10,5,1,9,0.01
2014-8-2,81.0,72.9,65.0,65.0,62.2,58.0,81,70,58,30.15,30.04,5,1,10,0.01
2014-8-3,83.0,72.5,67.0,69.0,64.9,61.0,84,78,60,30.08,29.98,9,1,14,0.27
2014-8-4,83.0,72.3,64.0,65.0,62.5,59.0,86,73,53,30.12,30.04,7,1,10,0.19
2014-8-5,87.0,76.3,62.0,68.0,63.2,57.0,84,66,44,30.07,29.93,9,1,18,0.10
2014-8-6,80.0,71.6,64.0,65.0,62.9,59.0,86,75,57,29.97,29.90,3,0,8,0.01
2014-8-7,80.0,74.2,63.0,64.0,58.3,55.0,85,60,45,30.03,29.94,8,2,12,0.01
2014-8-8,81.0,71.3,58.0,61.0,57.5,53.0,83,63,46,30.15,30.05,2,0,8,0.01
2014-8-9,84.0,69.9,61.0,66.0,60.2,55.0,82,72,52,30.12,30.05,2,0,8,0.00
2014-8-10,83.0,72.5,63.0,66.0,59.9,58.0,84,62,51,30.14,30.05,5,1,9,0.00
2014-8-11,79.0,72.6,64.0,62.0,60.9,58.0,84,68,54,30.10,30.01,8,2,12,0.16
2014-8-12,76.0,71.7,67.0,70.0,66.2,62.0,85,83,78,30.00,29.75,5,1,10,0.66
2014-8-13,79.0,72.0,63.0,66.0,60.8,54.0,85,69,54,29.90,29.76,5,2,16,0.03
2014-8-14,80.0,65.9,54.0,61.0,52.2,48.0,80,64,37,29.94,29.85,5,1,15,0.01
2014-8-15,77.0,64.3,51.0,54.0,49.2,44.0,78,60,39,30.01,29.95,6,1,13,0.00
2014-8-16,80.0,67.4,52.0,59.0,53.3,46.0,82,62,45,30.03,29.91,5,1,10,0.00
2014-8-17,84.0,72.9,65.0,68.0,59.3,56.0,75,61,44,29.93,29.87,8,2,14,0.00
2014-8-18,82.0,72.2,62.0,66.0,61.3,56.0,83,70,55,29.93,29.79,3,1,8,0.00
2014-8-19,82.0,74.4,65.0,69.0,64.9,60.0,84,73,61,29.90,29.82,2,0,7,0.00
2014-8-20,81.0,75.2,71.0,70.0,66.9,64.0,83,76,65,29.98,29.89,7,2,12,0.47
2014-8-21,83.0,71.2,66.0,71.0,64.8,61.0,85,81,67,30.04,29.96,3,0,6,0.56
2014-8-22,81.0,71.8,66.0,69.0,65.2,61.0,85,80,66,30.01,29.94,3,0,5,0.01
2014-8-23,73.0,69.8,67.0,67.0,64.1,62.0,85,82,79,30.08,29.96,2,1,7,1.04
2014-8-24,78.0,67.2,63.0,63.0,58.1,58.0,85,71,54,30.16,30.09,2,1,8,0.06
2014-8-25,82.0,68.5,56.0,63.0,57.8,51.0,85,70,47,30.20,30.13,2,0,8,0.00
2014-8-26,84.0,69.4,56.0,64.0,58.4,51.0,85,70,47,30.19,30.09,4,0,8,0.01
2014-8-27,87.0,74.2,61.0,70.0,64.2,56.0,84,72,55,30.08,29.91,4,1,7,0.01
2014-8-28,79.0,71.4,61.0,64.0,57.6,52.0,80,63,43,30.10,29.92,12,4,16,0.00
2014-8-29,79.0,66.5,54.0,57.0,53.4,48.0,82,64,46,30.20,30.10,3,0,7,0.00
2014-8-30,82.0,72.4,61.0,69.0,63.3,54.0,79,74,66,30.19,30.08,6,2,11,0.00
2014-8-31,88.0,76.7,72.0,73.0,67.7,67.0,85,72,54,30.10,29.97,6,2,9,0.00
2014-9-1,89.0,79.8,73.0,74.0,70.2,68.0,85,74,56,30.01,29.92,5,1,13,0.01
2014-9-2,90.0,78.6,73.0,74.0,68.3,66.0,80,71,54,29.97,29.81,6,1,13,0.22
2014-9-3,85.0,75.6,68.0,67.0,64.0,61.0,83,69,47,30.12,29.92,4,1,7,0.22
2014-9-4,87.0,77.0,66.0,72.0,66.5,61.0,85,71,58,30.16,30.06,10,2,16,0.00
2014-9-5,89.0,78.4,69.0,75.0,70.3,64.0,86,77,58,30.15,30.00,4,0,9,0.00
2014-9-6,90.0,75.5,70.0,75.0,68.5,63.0,86,80,50,30.01,29.85,10,2,15,1.62
2014-9-7,77.0,66.8,61.0,61.0,53.4,50.0,82,63,44,30.18,29.99,8,2,14,1.37
2014-9-8,77.0,65.0,54.0,64.0,55.5,49.0,83,72,58,30.24,30.17,5,2,13,0.00
2014-9-9,74.0,67.5,61.0,64.0,59.6,54.0,82,76,69,30.21,30.09,7,1,9,0.00
2014-9-10,79.0,71.5,66.0,66.0,62.8,60.0,82,75,63,30.11,29.94,5,2,14,0.00
2014-9-11,84.0,74.7,66.0,70.0,65.4,56.0,82,73,62,30.01,29.85,10,4,17,0.00
2014-9-12,74.0,63.8,55.0,58.0,53.1,49.0,82,69,53,30.16,30.02,9,2,14,0.00
2014-9-13,68.0,59.1,55.0,58.0,52.3,48.0,84,78,64,30.24,30.10,5,1,7,0.15
2014-9-14,68.0,56.2,46.0,50.0,45.4,41.0,83,67,51,30.33,30.19,6,1,10,0.01
2014-9-15,73.0,59.8,46.0,55.0,49.1,41.0,84,70,47,30.24,30.02,3,0,9,0.01
2014-9-16,73.0,63.8,56.0,57.0,52.8,49.0,83,68,51,30.05,29.98,10,2,15,0.00
2014-9-17,74.0,59.6,48.0,54.0,48.4,43.0,84,69,42,30.07,29.94,2,0,9,0.01
2014-9-18,76.0,62.4,52.0,55.0,49.1,46.0,82,64,40,30.10,29.95,6,1,11,0.01
2014-9-19,73.0,63.0,51.0,57.0,51.7,45.0,82,67,52,30.25,30.10,5,2,15,0.00
2014-9-20,80.0,69.9,62.0,60.0,58.0,55.0,82,67,50,30.25,30.01,10,3,18,0.00
2014-9-21,84.0,68.7,57.0,70.0,58.7,51.0,84,70,52,30.04,29.62,6,2,14,0.12
2014-9-22,68.0,61.4,53.0,51.0,47.0,41.0,73,60,49,30.23,29.76,15,4,21,0.01
2014-9-23,71.0,56.2,43.0,48.0,43.0,37.0,79,63,41,30.37,30.24,4,0,10,0.00
2014-9-29,77.0,67.1,60.0,62.0,58.3,54.0,84,74,58,30.03,29.90,4,0,6,0.01
2014-9-30,78.0,65.9,56.0,64.0,58.3,51.0,86,78,58,29.94,29.82,3,1,12,0.33
2014-10-1,70.0,63.4,58.0,61.0,57.2,53.0,86,81,69,30.06,29.93,3,1,7,0.03
2014-10-2,74.0,63.3,55.0,62.0,56.1,50.0,86,78,59,30.14,30.05,5,0,7,0.01
2014-10-3,69.0,64.9,59.0,61.0,58.7,54.0,84,80,74,30.09,29.67,9,3,20,0.16
2014-10-4,67.0,57.6,41.0,62.0,44.1,30.0,85,62,42,29.80,29.59,10,3,22,0.02
2014-10-5,61.0,49.0,38.0,39.0,34.5,31.0,80,58,40,29.95,29.80,7,1,15,0.01
2014-10-6,72.0,55.8,38.0,54.0,43.9,33.0,83,66,45,29.97,29.84,11,3,22,0.00
2014-10-7,67.0,61.0,57.0,56.0,52.7,50.0,82,74,61,30.00,29.81,7,4,17,0.25
2014-10-8,72.0,61.5,52.0,55.0,48.9,41.0,84,66,40,29.99,29.82,8,2,16,0.03
2014-10-9,70.0,58.0,46.0,46.0,41.9,36.0,73,56,37,30.10,29.98,8,2,16,0.00
2014-10-10,59.0,55.3,51.0,50.0,47.7,44.0,82,76,66,30.11,30.05,3,0,7,0.02
2014-10-11,59.0,53.6,51.0,49.0,47.6,46.0,84,81,69,30.16,30.00,5,1,10,0.35
2014-10-12,64.0,53.0,44.0,47.0,43.7,39.0,83,70,51,30.28,30.16,7,1,11,0.01
2014-10-13,65.0,60.1,56.0,60.0,53.4,46.0,84,79,70,30.25,30.16,5,1,13,0.01
2014-10-14,77.0,72.0,65.0,66.0,64.1,60.0,86,76,66,30.16,29.90,10,5,20,0.00
2014-10-15,74.0,66.2,57.0,67.0,60.7,53.0,86,83,74,29.91,29.72,10,2,22,1.55
2014-10-19,57.0,49.7,44.0,41.0,34.0,29.0,67,54,41,30.08,29.85,15,6,24,0.00
2014-10-20,62.0,51.3,37.0,47.0,39.5,31.0,80,65,49,30.09,29.90,7,1,14,0.01
2014-10-21,65.0,54.4,49.0,52.0,47.0,44.0,83,77,55,29.91,29.80,5,1,10,0.11
2014-10-22,57.0,53.2,50.0,47.0,45.3,41.0,84,75,65,30.00,29.88,12,6,21,0.07
2014-10-23,63.0,56.8,50.0,47.0,42.7,39.0,69,60,48,29.96,29.87,19,9,27,0.06
2014-10-24,67.0,55.8,48.0,44.0,40.1,37.0,71,57,37,30.00,29.89,10,2,18,0.00
2014-10-25,72.0,58.4,44.0,50.0,43.9,36.0,73,59,41,29.96,29.67,8,2,14,0.00
2014-10-26,66.0,59.6,50.0,50.0,35.0,30.0,63,40,30,29.91,29.65,13,4,22,0.00
2014-10-27,71.0,55.0,40.0,39.0,34.0,29.0,68,47,27,30.07,29.91,5,0,10,0.00
2014-10-30,55.0,47.2,39.0,42.0,38.0,34.0,83,71,55,30.06,29.97,7,1,12,0.01
2014-10-31,53.0,47.0,41.0,41.0,37.2,34.0,80,69,54,30.01,29.84,2,0,5,0.01
2014-11-1,50.0,46.6,43.0,39.0,36.0,30.0,75,67,58,29.95,29.79,16,6,28,0.01
2014-11-2,49.0,42.7,40.0,30.0,25.0,20.0,64,50,36,30.24,29.96,18,10,28,0.01
2014-11-3,58.0,46.1,33.0,27.0,23.1,20.0,62,42,23,30.31,30.17,4,1,8,0.00
2014-11-4,71.0,58.7,47.0,38.0,31.4,25.0,50,36,20,30.19,30.01,4,1,10,0.00
2014-11-5,65.0,59.2,54.0,48.0,43.1,33.0,78,57,34,30.17,30.02,4,1,8,0.02
2014-11-6,62.0,53.6,48.0,53.0,45.8,39.0,85,75,52,30.09,29.64,16,2,22,0.35
2014-11-7,51.0,46.4,40.0,40.0,33.0,26.0,71,60,47,30.03,29.69,17,6,26,0.01
2014-11-8,49.0,40.7,31.0,32.0,26.6,22.0,70,57,43,30.04,29.85,9,2,18,0.00
2014-11-9,57.0,46.6,38.0,36.0,32.1,29.0,73,58,39,30.00,29.86,4,1,15,0.00
2014-11-10,63.0,49.0,33.0,42.0,35.3,27.0,80,61,45,30.13,29.99,5,1,15,0.00
2014-11-11,67.0,53.7,36.0,54.0,43.3,31.0,83,69,46,30.06,29.86,6,1,9,0.00
2014-11-12,56.0,44.6,34.0,48.0,33.8,25.0,85,65,43,30.13,29.83,13,3,19,0.01
2014-11-13,41.0,36.2,31.0,31.0,27.3,24.0,77,70,56,30.14,30.03,10,1,16,0.01
2014-11-18,34.0,24.6,21.0,20.0,6.4,3.0,56,46,36,30.19,29.77,19,8,28,0.01
2014-11-19,34.0,26.3,17.0,13.0,9.2,6.0,62,49,38,30.29,29.93,8,2,15,0.00
2014-11-20,47.0,36.5,31.0,24.0,16.0,11.0,51,43,31,30.10,29.88,13,4,21,0.00
2014-11-21,34.0,28.9,21.0,12.0,9.6,8.0,60,44,35,30.49,30.11,13,5,18,0.00
2014-11-22,46.0,28.8,15.0,21.0,14.1,7.0,72,54,33,30.49,30.18,6,1,11,0.00
2014-11-23,57.0,46.0,34.0,45.0,29.1,19.0,82,53,32,30.17,29.77,5,1,10,0.10
2014-11-24,70.0,63.7,55.0,56.0,51.8,38.0,84,66,46,29.76,29.51,14,6,26,0.29
2014-11-25,59.0,50.0,40.0,39.0,32.2,28.0,67,50,41,30.14,29.76,9,3,16,0.00
2014-11-26,43.0,36.7,33.0,32.0,29.9,28.0,83,77,60,30.15,29.93,5,1,9,0.41
2014-11-27,40.0,35.6,32.0,35.0,28.6,23.0,83,76,64,30.15,29.96,8,2,18,0.33
2014-11-28,36.0,31.7,26.0,24.0,19.7,15.0,76,61,48,30.28,30.15,11,4,20,0.02
2014-11-29,43.0,35.6,28.0,30.0,23.6,17.0,78,61,51,30.27,30.08,9,2,14,0.00
2014-11-30,62.0,49.8,40.0,45.0,36.2,27.0,69,59,49,30.08,29.98,7,1,14,0.00
2014-12-1,66.0,54.2,40.0,53.0,43.0,27.0,76,66,60,30.46,30.06,15,5,24,0.06
2014-12-2,39.0,35.5,33.0,30.0,27.2,23.0,82,72,58,30.55,30.26,4,1,7,0.25
2014-12-3,52.0,40.1,35.0,46.0,32.6,24.0,85,76,55,30.29,30.01,12,2,20,0.26
2014-12-4,41.0,38.1,33.0,28.0,25.2,23.0,68,60,51,30.44,30.29,5,1,10,0.01
2014-12-5,40.0,38.8,37.0,35.0,30.3,26.0,82,71,61,30.48,30.27,4,1,9,0.24
2014-12-6,43.0,40.1,39.0,38.0,35.2,34.0,84,81,74,30.29,30.02,9,3,12,0.73
2014-12-7,45.0,37.5,31.0,33.0,22.3,16.0,73,55,33,30.55,30.29,10,4,17,0.11
2014-12-8,34.0,30.8,27.0,25.0,19.5,14.0,80,63,49,30.57,30.26,6,1,10,0.03
2014-12-9,44.0,36.3,30.0,37.0,30.6,25.0,83,79,71,30.26,29.89,7,2,13,0.63
2014-12-10,44.0,36.5,36.0,33.0,26.2,23.0,72,60,60,29.90,29.79,20,9,26,0.02
2014-12-11,38.0,34.9,33.0,23.0,19.5,11.0,62,52,34,29.96,29.79,13,8,19,0.00
2014-12-12,39.0,35.9,31.0,26.0,22.4,15.0,68,58,39,30.11,29.94,10,4,17,0.00
2014-12-13,43.0,36.4,31.0,30.0,25.8,21.0,71,65,57,30.10,29.98,7,2,11,0.00
2014-12-14,51.0,46.2,36.0,38.0,35.2,27.0,71,64,60,30.01,29.93,13,5,21,0.00
2014-12-15,58.0,46.7,36.0,42.0,37.4,30.0,80,70,55,30.07,29.98,5,1,11,0.00
2014-12-16,44.0,38.8,32.0,39.0,34.0,27.0,88,83,80,30.00,29.82,4,1,8,0.09
2014-12-17,47.0,42.6,37.0,39.0,31.6,22.0,84,66,50,30.04,29.88,10,4,19,0.01
2014-12-18,37.0,34.5,33.0,24.0,21.7,19.0,64,59,51,30.15,30.04,14,5,23,0.01
2014-12-19,40.0,33.9,27.0,25.0,22.4,17.0,68,62,54,30.23,30.06,10,4,16,0.00
2014-12-20,35.0,25.8,22.0,22.0,17.0,14.0,74,66,57,30.28,30.21,2,0,4,0.00
2014-12-21,39.0,32.2,26.0,24.0,22.2,19.0,75,67,53,30.33,30.24,4,0,8,0.00
2014-12-22,35.0,29.4,21.0,29.0,23.4,15.0,83,78,69,30.28,30.08,3,1,6,0.15
2014-12-23,40.0,37.4,34.0,36.0,33.0,29.0,84,84,83,30.09,29.96,2,0,3,0.15
2014-12-24,50.0,45.2,40.0,46.0,41.2,36.0,86,85,84,30.00,29.47,9,1,12,0.69
2014-12-25,52.0,46.1,36.0,47.0,34.3,27.0,86,64,50,30.19,29.54,14,5,24,0.08
2014-12-26,51.0,40.2,30.0,34.0,29.7,24.0,78,66,50,30.30,30.16,5,1,8,0.02
2014-12-27,59.0,43.1,31.0,36.0,29.5,26.0,81,59,39,30.28,29.99,4,0,6,0.00
2014-12-28,57.0,48.7,41.0,44.0,37.6,31.0,80,65,60,30.10,29.89,10,4,18,0.01
2014-12-29,44.0,38.8,29.0,31.0,25.5,19.0,69,59,45,30.25,30.10,6,1,9,0.00
2014-12-30,38.0,31.2,24.0,20.0,16.1,11.0,67,54,38,30.42,30.25,7,2,11,0.00
2014-12-31,35.0,28.0,23.0,16.0,10.3,6.0,63,48,33,30.41,30.18,7,3,13,0.00
2015-1-1,44.0,34.3,23.0,21.0,14.1,7.0,52,43,32,30.17,29.99,11,4,21,0.00
2015-1-2,45.0,36.5,29.0,23.0,19.3,15.0,64,50,39,30.39,30.05,6,2,12,0.00